sensor_id;sensor_type;location;lat;lon;timestamp;temperature;humidity
18335;DHT22;9293;49.524;10.964;2023-04-08T00:00:15;7.60;99.90
18335;DHT22;9293;49.524;10.964;2023-04-08T00:02:43;7.70;99.90
18335;DHT22;9293;49.524;10.964;2023-04-08T00:05:11;7.60;99.90
18335;DHT22;9293;49.524;10.964;2023-04-08T00:07:39;7.60;99.90
18335;DHT22;9293;49.524;10.964;2023-04-08T00:10:07;7.50;99.90
18335;DHT22;9293;49.524;10.964;2023-04-08T00:12:35;7.50;99.90
18335;DHT22;9293;49.524;10.964;2023-04-08T00:15:03;7.50;99.90
18335;DHT22;9293;49.524;10.964;2023-04-08T00:17:32;7.50;99.90
18335;DHT22;9293;49.524;10.964;2023-04-08T00:20:00;7.50;99.90
18335;DHT22;9293;49.524;10.964;2023-04-08T00:22:28;7.50;99.90
18335;DHT22;9293;49.524;10.964;2023-04-08T00:24:56;7.60;99.90
18335;DHT22;9293;49.524;10.964;2023-04-08T00:27:24;7.50;99.90
18335;DHT22;9293;49.524;10.964;2023-04-08T00:29:52;7.50;99.90
18335;DHT22;9293;49.524;10.964;2023-04-08T00:32:21;7.40;99.90
18335;DHT22;9293;49.524;10.964;2023-04-08T00:34:51;7.30;99.90
18335;DHT22;9293;49.524;10.964;2023-04-08T00:37:19;7.30;99.90
18335;DHT22;9293;49.524;10.964;2023-04-08T00:39:48;7.20;99.90
18335;DHT22;9293;49.524;10.964;2023-04-08T00:42:16;7.20;99.90
18335;DHT22;9293;49.524;10.964;2023-04-08T00:44:44;7.10;99.90
18335;DHT22;9293;49.524;10.964;2023-04-08T00:47:12;7.00;99.90
18335;DHT22;9293;49.524;10.964;2023-04-08T00:49:41;7.00;99.90
18335;DHT22;9293;49.524;10.964;2023-04-08T00:52:09;7.00;99.90
18335;DHT22;9293;49.524;10.964;2023-04-08T00:54:38;6.90;99.90
18335;DHT22;9293;49.524;10.964;2023-04-08T00:57:06;6.90;99.90
18335;DHT22;9293;49.524;10.964;2023-04-08T00:59:34;6.80;99.90
18335;DHT22;9293;49.524;10.964;2023-04-08T01:04:53;6.70;99.90
18335;DHT22;9293;49.524;10.964;2023-04-08T01:07:28;6.60;99.90
18335;DHT22;9293;49.524;10.964;2023-04-08T01:10:00;6.60;99.90
18335;DHT22;9293;49.524;10.964;2023-04-08T01:12:29;6.60;99.90
18335;DHT22;9293;49.524;10.964;2023-04-08T01:15:06;6.50;99.90
18335;DHT22;9293;49.524;10.964;2023-04-08T01:17:34;6.50;99.90
18335;DHT22;9293;49.524;10.964;2023-04-08T01:20:04;6.50;99.90
18335;DHT22;9293;49.524;10.964;2023-04-08T01:22:45;6.40;99.90
18335;DHT22;9293;49.524;10.964;2023-04-08T01:25:18;6.50;99.90
18335;DHT22;9293;49.524;10.964;2023-04-08T01:27:48;6.50;99.90
18335;DHT22;9293;49.524;10.964;2023-04-08T01:30:17;6.50;99.90
18335;DHT22;9293;49.524;10.964;2023-04-08T01:32:46;6.50;99.90
18335;DHT22;9293;49.524;10.964;2023-04-08T01:35:14;6.50;99.90
18335;DHT22;9293;49.524;10.964;2023-04-08T01:37:43;6.50;99.90
18335;DHT22;9293;49.524;10.964;2023-04-08T01:40:12;6.50;99.90
18335;DHT22;9293;49.524;10.964;2023-04-08T01:42:40;6.60;99.90
18335;DHT22;9293;49.524;10.964;2023-04-08T01:45:10;6.60;99.90
18335;DHT22;9293;49.524;10.964;2023-04-08T01:47:39;6.60;99.90
18335;DHT22;9293;49.524;10.964;2023-04-08T01:50:09;6.60;99.90
18335;DHT22;9293;49.524;10.964;2023-04-08T01:52:39;6.60;99.90
18335;DHT22;9293;49.524;10.964;2023-04-08T01:55:12;6.60;99.90
18335;DHT22;9293;49.524;10.964;2023-04-08T01:57:40;6.60;99.90
18335;DHT22;9293;49.524;10.964;2023-04-08T02:00:12;6.60;99.90
18335;DHT22;9293;49.524;10.964;2023-04-08T02:02:47;6.50;99.90
18335;DHT22;9293;49.524;10.964;2023-04-08T02:05:17;6.50;99.90
18335;DHT22;9293;49.524;10.964;2023-04-08T02:07:46;6.50;99.90
18335;DHT22;9293;49.524;10.964;2023-04-08T02:10:14;6.40;99.90
18335;DHT22;9293;49.524;10.964;2023-04-08T02:12:43;6.40;99.90
18335;DHT22;9293;49.524;10.964;2023-04-08T02:15:11;6.40;99.90
18335;DHT22;9293;49.524;10.964;2023-04-08T02:17:43;6.40;99.90
18335;DHT22;9293;49.524;10.964;2023-04-08T02:20:16;6.50;99.90
18335;DHT22;9293;49.524;10.964;2023-04-08T02:23:28;6.50;99.90
18335;DHT22;9293;49.524;10.964;2023-04-08T02:25:37;6.50;99.90
18335;DHT22;9293;49.524;10.964;2023-04-08T02:28:07;6.50;99.90
18335;DHT22;9293;49.524;10.964;2023-04-08T02:30:36;6.60;99.90
18335;DHT22;9293;49.524;10.964;2023-04-08T02:33:19;6.60;99.90
18335;DHT22;9293;49.524;10.964;2023-04-08T02:35:50;6.50;99.90
18335;DHT22;9293;49.524;10.964;2023-04-08T02:38:22;6.50;99.90
18335;DHT22;9293;49.524;10.964;2023-04-08T02:40:50;6.50;99.90
18335;DHT22;9293;49.524;10.964;2023-04-08T02:43:18;6.50;99.90
18335;DHT22;9293;49.524;10.964;2023-04-08T02:45:47;6.50;99.90
18335;DHT22;9293;49.524;10.964;2023-04-08T02:48:15;6.50;99.90
18335;DHT22;9293;49.524;10.964;2023-04-08T02:50:43;6.50;99.90
18335;DHT22;9293;49.524;10.964;2023-04-08T02:53:11;6.50;99.90
18335;DHT22;9293;49.524;10.964;2023-04-08T02:55:39;6.50;99.90
18335;DHT22;9293;49.524;10.964;2023-04-08T02:58:07;6.40;99.90
18335;DHT22;9293;49.524;10.964;2023-04-08T03:00:35;6.30;99.90
18335;DHT22;9293;49.524;10.964;2023-04-08T03:03:06;6.20;99.90
18335;DHT22;9293;49.524;10.964;2023-04-08T03:05:34;6.20;99.90
18335;DHT22;9293;49.524;10.964;2023-04-08T03:08:02;6.00;99.90
18335;DHT22;9293;49.524;10.964;2023-04-08T03:10:30;6.00;99.90
18335;DHT22;9293;49.524;10.964;2023-04-08T03:12:59;6.00;99.90
18335;DHT22;9293;49.524;10.964;2023-04-08T03:15:27;6.00;99.90
18335;DHT22;9293;49.524;10.964;2023-04-08T03:17:55;6.10;99.90
18335;DHT22;9293;49.524;10.964;2023-04-08T03:20:23;6.20;99.90
18335;DHT22;9293;49.524;10.964;2023-04-08T03:22:51;6.20;99.90
18335;DHT22;9293;49.524;10.964;2023-04-08T03:25:19;6.20;99.90
18335;DHT22;9293;49.524;10.964;2023-04-08T03:27:47;6.20;99.90
18335;DHT22;9293;49.524;10.964;2023-04-08T03:30:15;6.20;99.90
18335;DHT22;9293;49.524;10.964;2023-04-08T03:32:43;6.20;99.90
18335;DHT22;9293;49.524;10.964;2023-04-08T03:35:11;6.20;99.90
18335;DHT22;9293;49.524;10.964;2023-04-08T03:37:39;6.20;99.90
18335;DHT22;9293;49.524;10.964;2023-04-08T03:40:08;6.20;99.90
18335;DHT22;9293;49.524;10.964;2023-04-08T03:42:36;6.20;99.90
18335;DHT22;9293;49.524;10.964;2023-04-08T03:45:04;6.20;99.90
18335;DHT22;9293;49.524;10.964;2023-04-08T03:47:32;6.20;99.90
18335;DHT22;9293;49.524;10.964;2023-04-08T03:50:01;6.20;99.90
18335;DHT22;9293;49.524;10.964;2023-04-08T03:52:29;6.20;99.90
18335;DHT22;9293;49.524;10.964;2023-04-08T03:54:57;6.20;99.90
18335;DHT22;9293;49.524;10.964;2023-04-08T03:57:25;6.20;99.90
18335;DHT22;9293;49.524;10.964;2023-04-08T03:59:53;6.10;99.90
18335;DHT22;9293;49.524;10.964;2023-04-08T04:02:21;6.10;99.90
18335;DHT22;9293;49.524;10.964;2023-04-08T04:04:49;6.00;99.90
18335;DHT22;9293;49.524;10.964;2023-04-08T04:07:18;6.00;99.90
18335;DHT22;9293;49.524;10.964;2023-04-08T04:09:46;5.90;99.90
18335;DHT22;9293;49.524;10.964;2023-04-08T04:12:14;5.90;99.90
18335;DHT22;9293;49.524;10.964;2023-04-08T04:14:42;5.90;99.90
18335;DHT22;9293;49.524;10.964;2023-04-08T04:17:10;5.90;99.90
18335;DHT22;9293;49.524;10.964;2023-04-08T04:19:38;5.90;99.90
18335;DHT22;9293;49.524;10.964;2023-04-08T04:22:06;5.90;99.90
18335;DHT22;9293;49.524;10.964;2023-04-08T04:24:45;5.90;99.90
18335;DHT22;9293;49.524;10.964;2023-04-08T04:27:14;5.90;99.90
18335;DHT22;9293;49.524;10.964;2023-04-08T04:29:42;5.90;99.90
18335;DHT22;9293;49.524;10.964;2023-04-08T04:32:10;5.90;99.90
18335;DHT22;9293;49.524;10.964;2023-04-08T04:34:38;5.90;99.90
18335;DHT22;9293;49.524;10.964;2023-04-08T04:37:06;5.90;99.90
18335;DHT22;9293;49.524;10.964;2023-04-08T04:39:34;5.80;99.90
18335;DHT22;9293;49.524;10.964;2023-04-08T04:42:03;5.80;99.90
18335;DHT22;9293;49.524;10.964;2023-04-08T04:44:31;5.90;99.90
18335;DHT22;9293;49.524;10.964;2023-04-08T04:46:59;5.90;99.90
18335;DHT22;9293;49.524;10.964;2023-04-08T04:49:27;5.90;99.90
18335;DHT22;9293;49.524;10.964;2023-04-08T05:00:21;6.10;99.90
18335;DHT22;9293;49.524;10.964;2023-04-08T05:02:49;6.10;99.90
18335;DHT22;9293;49.524;10.964;2023-04-08T05:05:18;6.20;99.90
18335;DHT22;9293;49.524;10.964;2023-04-08T05:07:49;6.20;99.90
18335;DHT22;9293;49.524;10.964;2023-04-08T05:10:17;6.30;99.90
18335;DHT22;9293;49.524;10.964;2023-04-08T05:12:49;6.30;99.90
18335;DHT22;9293;49.524;10.964;2023-04-08T05:15:17;6.30;99.90
18335;DHT22;9293;49.524;10.964;2023-04-08T05:17:45;6.30;99.90
18335;DHT22;9293;49.524;10.964;2023-04-08T05:20:14;6.30;99.90
18335;DHT22;9293;49.524;10.964;2023-04-08T05:22:43;6.30;99.90
18335;DHT22;9293;49.524;10.964;2023-04-08T05:25:12;6.30;99.90
18335;DHT22;9293;49.524;10.964;2023-04-08T05:27:40;6.30;99.90
18335;DHT22;9293;49.524;10.964;2023-04-08T05:30:08;6.30;99.90
18335;DHT22;9293;49.524;10.964;2023-04-08T05:32:36;6.30;99.90
18335;DHT22;9293;49.524;10.964;2023-04-08T05:35:04;6.30;99.90
18335;DHT22;9293;49.524;10.964;2023-04-08T05:37:33;6.30;99.90
18335;DHT22;9293;49.524;10.964;2023-04-08T05:40:01;6.30;99.90
18335;DHT22;9293;49.524;10.964;2023-04-08T05:42:29;6.30;99.90
18335;DHT22;9293;49.524;10.964;2023-04-08T05:44:58;6.30;99.90
18335;DHT22;9293;49.524;10.964;2023-04-08T05:47:27;6.30;99.90
18335;DHT22;9293;49.524;10.964;2023-04-08T05:49:55;6.30;99.90
18335;DHT22;9293;49.524;10.964;2023-04-08T05:52:23;6.30;99.90
18335;DHT22;9293;49.524;10.964;2023-04-08T05:54:51;6.30;99.90
18335;DHT22;9293;49.524;10.964;2023-04-08T05:57:19;6.30;99.90
18335;DHT22;9293;49.524;10.964;2023-04-08T05:59:47;6.40;99.90
18335;DHT22;9293;49.524;10.964;2023-04-08T06:02:15;6.40;99.90
18335;DHT22;9293;49.524;10.964;2023-04-08T06:04:43;6.40;99.90
18335;DHT22;9293;49.524;10.964;2023-04-08T06:07:12;6.40;99.90
18335;DHT22;9293;49.524;10.964;2023-04-08T06:09:42;6.40;99.90
18335;DHT22;9293;49.524;10.964;2023-04-08T06:12:10;6.40;99.90
18335;DHT22;9293;49.524;10.964;2023-04-08T06:14:39;6.40;99.90
18335;DHT22;9293;49.524;10.964;2023-04-08T06:17:07;6.30;99.90
18335;DHT22;9293;49.524;10.964;2023-04-08T06:19:35;6.30;99.90
18335;DHT22;9293;49.524;10.964;2023-04-08T06:22:03;6.40;99.90
18335;DHT22;9293;49.524;10.964;2023-04-08T06:24:31;6.50;99.90
18335;DHT22;9293;49.524;10.964;2023-04-08T06:27:02;6.50;99.90
18335;DHT22;9293;49.524;10.964;2023-04-08T06:29:30;6.60;99.90
18335;DHT22;9293;49.524;10.964;2023-04-08T06:32:00;6.60;99.90
18335;DHT22;9293;49.524;10.964;2023-04-08T06:34:28;6.50;99.90
18335;DHT22;9293;49.524;10.964;2023-04-08T06:36:57;6.50;99.90
18335;DHT22;9293;49.524;10.964;2023-04-08T06:39:27;6.60;99.90
18335;DHT22;9293;49.524;10.964;2023-04-08T06:41:55;6.60;99.90
18335;DHT22;9293;49.524;10.964;2023-04-08T06:44:34;6.50;99.90
18335;DHT22;9293;49.524;10.964;2023-04-08T06:47:03;6.40;99.90
18335;DHT22;9293;49.524;10.964;2023-04-08T06:49:32;6.40;99.90
18335;DHT22;9293;49.524;10.964;2023-04-08T06:52:03;6.30;99.90
18335;DHT22;9293;49.524;10.964;2023-04-08T06:54:33;6.40;99.90
18335;DHT22;9293;49.524;10.964;2023-04-08T06:57:01;6.40;99.90
18335;DHT22;9293;49.524;10.964;2023-04-08T06:59:31;6.40;99.90
18335;DHT22;9293;49.524;10.964;2023-04-08T07:01:59;6.40;99.90
18335;DHT22;9293;49.524;10.964;2023-04-08T07:04:28;6.40;99.90
18335;DHT22;9293;49.524;10.964;2023-04-08T07:06:58;6.30;99.90
18335;DHT22;9293;49.524;10.964;2023-04-08T07:09:27;6.30;99.90
18335;DHT22;9293;49.524;10.964;2023-04-08T07:11:55;6.30;99.90
18335;DHT22;9293;49.524;10.964;2023-04-08T07:14:24;6.30;99.90
18335;DHT22;9293;49.524;10.964;2023-04-08T07:16:52;6.30;99.90
18335;DHT22;9293;49.524;10.964;2023-04-08T07:19:20;6.20;99.90
18335;DHT22;9293;49.524;10.964;2023-04-08T07:21:49;6.20;99.90
18335;DHT22;9293;49.524;10.964;2023-04-08T07:24:18;6.20;99.90
18335;DHT22;9293;49.524;10.964;2023-04-08T07:26:46;6.20;99.90
18335;DHT22;9293;49.524;10.964;2023-04-08T07:29:16;6.30;99.90
18335;DHT22;9293;49.524;10.964;2023-04-08T07:31:44;6.20;99.90
18335;DHT22;9293;49.524;10.964;2023-04-08T07:34:12;6.20;99.90
18335;DHT22;9293;49.524;10.964;2023-04-08T07:36:41;6.10;99.90
18335;DHT22;9293;49.524;10.964;2023-04-08T07:39:09;6.20;99.90
18335;DHT22;9293;49.524;10.964;2023-04-08T07:41:37;6.20;99.90
18335;DHT22;9293;49.524;10.964;2023-04-08T07:44:05;6.20;99.90
18335;DHT22;9293;49.524;10.964;2023-04-08T07:46:37;6.20;99.90
18335;DHT22;9293;49.524;10.964;2023-04-08T07:49:05;6.30;99.90
18335;DHT22;9293;49.524;10.964;2023-04-08T07:51:34;6.20;99.90
18335;DHT22;9293;49.524;10.964;2023-04-08T07:54:02;6.20;99.90
18335;DHT22;9293;49.524;10.964;2023-04-08T07:56:32;6.20;99.90
18335;DHT22;9293;49.524;10.964;2023-04-08T07:59:01;6.20;99.90
18335;DHT22;9293;49.524;10.964;2023-04-08T08:01:29;6.20;99.90
18335;DHT22;9293;49.524;10.964;2023-04-08T08:03:58;6.20;99.90
18335;DHT22;9293;49.524;10.964;2023-04-08T08:06:26;6.20;99.90
18335;DHT22;9293;49.524;10.964;2023-04-08T08:08:54;6.20;99.90
18335;DHT22;9293;49.524;10.964;2023-04-08T08:11:26;6.20;99.90
18335;DHT22;9293;49.524;10.964;2023-04-08T08:13:59;6.20;99.90
18335;DHT22;9293;49.524;10.964;2023-04-08T08:16:29;6.30;99.90
18335;DHT22;9293;49.524;10.964;2023-04-08T08:19:01;6.30;99.90
18335;DHT22;9293;49.524;10.964;2023-04-08T08:21:29;6.30;99.90
18335;DHT22;9293;49.524;10.964;2023-04-08T08:23:58;6.30;99.90
18335;DHT22;9293;49.524;10.964;2023-04-08T08:26:33;6.30;99.90
18335;DHT22;9293;49.524;10.964;2023-04-08T08:29:02;6.30;99.90
18335;DHT22;9293;49.524;10.964;2023-04-08T08:31:30;6.30;99.90
18335;DHT22;9293;49.524;10.964;2023-04-08T08:33:59;6.30;99.90
18335;DHT22;9293;49.524;10.964;2023-04-08T08:36:27;6.30;99.90
18335;DHT22;9293;49.524;10.964;2023-04-08T08:38:57;6.40;99.90
18335;DHT22;9293;49.524;10.964;2023-04-08T08:41:25;6.40;99.90
18335;DHT22;9293;49.524;10.964;2023-04-08T08:43:53;6.40;99.90
18335;DHT22;9293;49.524;10.964;2023-04-08T08:46:21;6.30;99.90
18335;DHT22;9293;49.524;10.964;2023-04-08T08:48:49;6.50;99.90
18335;DHT22;9293;49.524;10.964;2023-04-08T08:51:18;6.50;99.90
18335;DHT22;9293;49.524;10.964;2023-04-08T08:53:46;6.60;99.90
18335;DHT22;9293;49.524;10.964;2023-04-08T08:56:14;6.60;99.90
18335;DHT22;9293;49.524;10.964;2023-04-08T08:58:44;6.60;99.90
18335;DHT22;9293;49.524;10.964;2023-04-08T09:04:11;6.60;99.90
18335;DHT22;9293;49.524;10.964;2023-04-08T09:06:47;6.60;99.90
18335;DHT22;9293;49.524;10.964;2023-04-08T09:09:17;6.60;99.90
18335;DHT22;9293;49.524;10.964;2023-04-08T09:11:46;6.70;99.90
18335;DHT22;9293;49.524;10.964;2023-04-08T09:14:17;6.80;99.90
18335;DHT22;9293;49.524;10.964;2023-04-08T09:16:46;6.80;99.90
18335;DHT22;9293;49.524;10.964;2023-04-08T09:19:14;6.90;99.90
18335;DHT22;9293;49.524;10.964;2023-04-08T09:21:42;6.80;99.90
18335;DHT22;9293;49.524;10.964;2023-04-08T09:24:25;6.80;99.90
18335;DHT22;9293;49.524;10.964;2023-04-08T09:26:54;6.90;99.90
18335;DHT22;9293;49.524;10.964;2023-04-08T09:29:23;6.80;99.90
18335;DHT22;9293;49.524;10.964;2023-04-08T09:31:56;6.80;99.90
18335;DHT22;9293;49.524;10.964;2023-04-08T09:34:25;6.80;99.90
18335;DHT22;9293;49.524;10.964;2023-04-08T09:36:54;6.80;99.90
18335;DHT22;9293;49.524;10.964;2023-04-08T09:39:22;6.80;99.90
18335;DHT22;9293;49.524;10.964;2023-04-08T09:41:51;6.80;99.90
18335;DHT22;9293;49.524;10.964;2023-04-08T09:44:19;6.80;99.90
18335;DHT22;9293;49.524;10.964;2023-04-08T09:54:18;7.10;99.90
18335;DHT22;9293;49.524;10.964;2023-04-08T09:57:04;7.20;99.90
18335;DHT22;9293;49.524;10.964;2023-04-08T09:59:32;7.30;99.90
18335;DHT22;9293;49.524;10.964;2023-04-08T10:02:04;7.30;99.90
18335;DHT22;9293;49.524;10.964;2023-04-08T10:04:37;7.20;99.90
18335;DHT22;9293;49.524;10.964;2023-04-08T10:07:06;7.30;99.90
18335;DHT22;9293;49.524;10.964;2023-04-08T10:09:35;7.30;99.90
18335;DHT22;9293;49.524;10.964;2023-04-08T10:12:05;7.30;99.90
18335;DHT22;9293;49.524;10.964;2023-04-08T10:14:33;7.40;99.90
18335;DHT22;9293;49.524;10.964;2023-04-08T10:19:48;7.80;99.90
18335;DHT22;9293;49.524;10.964;2023-04-08T10:27:43;8.00;99.90
18335;DHT22;9293;49.524;10.964;2023-04-08T10:32:55;8.10;99.90
18335;DHT22;9293;49.524;10.964;2023-04-08T10:38:13;8.10;99.90
18335;DHT22;9293;49.524;10.964;2023-04-08T10:40:43;8.10;99.90
18335;DHT22;9293;49.524;10.964;2023-04-08T10:43:12;8.00;99.90
18335;DHT22;9293;49.524;10.964;2023-04-08T10:45:40;8.10;99.90
18335;DHT22;9293;49.524;10.964;2023-04-08T10:48:46;8.20;99.90
18335;DHT22;9293;49.524;10.964;2023-04-08T10:51:06;8.20;99.90
18335;DHT22;9293;49.524;10.964;2023-04-08T10:53:35;8.20;99.90
18335;DHT22;9293;49.524;10.964;2023-04-08T10:56:10;8.20;99.90
18335;DHT22;9293;49.524;10.964;2023-04-08T10:58:49;8.20;99.90
18335;DHT22;9293;49.524;10.964;2023-04-08T11:01:18;8.30;99.90
18335;DHT22;9293;49.524;10.964;2023-04-08T11:03:46;8.40;99.90
18335;DHT22;9293;49.524;10.964;2023-04-08T11:06:18;8.60;99.90
18335;DHT22;9293;49.524;10.964;2023-04-08T11:08:46;8.80;99.90
18335;DHT22;9293;49.524;10.964;2023-04-08T11:11:14;9.10;99.90
18335;DHT22;9293;49.524;10.964;2023-04-08T11:13:44;9.30;99.90
18335;DHT22;9293;49.524;10.964;2023-04-08T11:16:22;9.30;99.90
18335;DHT22;9293;49.524;10.964;2023-04-08T11:18:52;9.30;99.90
18335;DHT22;9293;49.524;10.964;2023-04-08T11:21:27;9.10;99.90
18335;DHT22;9293;49.524;10.964;2023-04-08T11:23:57;9.20;99.90
18335;DHT22;9293;49.524;10.964;2023-04-08T11:26:25;9.00;99.90
18335;DHT22;9293;49.524;10.964;2023-04-08T11:28:55;9.00;99.90
18335;DHT22;9293;49.524;10.964;2023-04-08T11:31:24;8.90;99.90
18335;DHT22;9293;49.524;10.964;2023-04-08T11:33:53;9.00;99.90
18335;DHT22;9293;49.524;10.964;2023-04-08T11:36:23;8.90;99.90
18335;DHT22;9293;49.524;10.964;2023-04-08T11:38:52;8.90;99.90
18335;DHT22;9293;49.524;10.964;2023-04-08T11:41:20;8.90;99.90
18335;DHT22;9293;49.524;10.964;2023-04-08T11:43:53;9.10;99.90
18335;DHT22;9293;49.524;10.964;2023-04-08T11:46:22;9.20;99.90
18335;DHT22;9293;49.524;10.964;2023-04-08T11:49:25;9.30;99.90
18335;DHT22;9293;49.524;10.964;2023-04-08T11:51:55;9.30;99.90
18335;DHT22;9293;49.524;10.964;2023-04-08T11:54:29;9.40;99.90
18335;DHT22;9293;49.524;10.964;2023-04-08T11:57:02;9.40;99.90
18335;DHT22;9293;49.524;10.964;2023-04-08T11:59:31;9.40;99.90
18335;DHT22;9293;49.524;10.964;2023-04-08T12:02:12;9.30;99.90
18335;DHT22;9293;49.524;10.964;2023-04-08T12:04:40;9.30;99.90
18335;DHT22;9293;49.524;10.964;2023-04-08T12:07:09;9.30;99.90
18335;DHT22;9293;49.524;10.964;2023-04-08T12:09:37;9.30;99.90
18335;DHT22;9293;49.524;10.964;2023-04-08T12:12:05;9.40;99.90
18335;DHT22;9293;49.524;10.964;2023-04-08T12:14:34;9.50;99.90
18335;DHT22;9293;49.524;10.964;2023-04-08T12:17:02;9.60;99.90
18335;DHT22;9293;49.524;10.964;2023-04-08T12:19:30;9.70;99.90
18335;DHT22;9293;49.524;10.964;2023-04-08T12:22:00;9.90;99.90
18335;DHT22;9293;49.524;10.964;2023-04-08T12:24:29;10.00;99.90
18335;DHT22;9293;49.524;10.964;2023-04-08T12:26:57;10.20;99.90
18335;DHT22;9293;49.524;10.964;2023-04-08T12:29:25;10.30;99.90
18335;DHT22;9293;49.524;10.964;2023-04-08T12:31:53;10.30;99.90
18335;DHT22;9293;49.524;10.964;2023-04-08T12:34:22;10.30;99.90
18335;DHT22;9293;49.524;10.964;2023-04-08T12:36:51;10.30;99.90
18335;DHT22;9293;49.524;10.964;2023-04-08T12:39:19;10.40;99.90
18335;DHT22;9293;49.524;10.964;2023-04-08T12:41:47;10.30;99.90
18335;DHT22;9293;49.524;10.964;2023-04-08T12:44:15;10.30;99.90
18335;DHT22;9293;49.524;10.964;2023-04-08T12:46:43;10.20;99.90
18335;DHT22;9293;49.524;10.964;2023-04-08T12:49:12;10.10;99.90
18335;DHT22;9293;49.524;10.964;2023-04-08T12:51:40;9.90;99.90
18335;DHT22;9293;49.524;10.964;2023-04-08T12:54:08;10.00;99.90
18335;DHT22;9293;49.524;10.964;2023-04-08T12:56:36;10.10;99.90
18335;DHT22;9293;49.524;10.964;2023-04-08T12:59:05;10.10;99.90
18335;DHT22;9293;49.524;10.964;2023-04-08T13:01:37;10.10;99.90
18335;DHT22;9293;49.524;10.964;2023-04-08T13:04:06;10.10;99.90
18335;DHT22;9293;49.524;10.964;2023-04-08T13:06:34;10.10;99.90
18335;DHT22;9293;49.524;10.964;2023-04-08T13:09:02;10.20;99.90
18335;DHT22;9293;49.524;10.964;2023-04-08T13:11:31;10.20;99.90
18335;DHT22;9293;49.524;10.964;2023-04-08T13:14:01;10.20;99.90
18335;DHT22;9293;49.524;10.964;2023-04-08T13:16:29;10.20;99.90
18335;DHT22;9293;49.524;10.964;2023-04-08T13:19:03;10.20;99.90
18335;DHT22;9293;49.524;10.964;2023-04-08T13:21:34;10.20;99.90
18335;DHT22;9293;49.524;10.964;2023-04-08T13:24:03;10.30;99.90
18335;DHT22;9293;49.524;10.964;2023-04-08T13:26:31;10.30;99.90
18335;DHT22;9293;49.524;10.964;2023-04-08T13:28:59;10.30;99.90
18335;DHT22;9293;49.524;10.964;2023-04-08T13:31:28;10.40;99.90
18335;DHT22;9293;49.524;10.964;2023-04-08T13:33:56;10.40;99.90
18335;DHT22;9293;49.524;10.964;2023-04-08T13:36:24;10.30;99.90
18335;DHT22;9293;49.524;10.964;2023-04-08T13:38:53;10.30;99.90
18335;DHT22;9293;49.524;10.964;2023-04-08T13:41:21;10.30;99.90
18335;DHT22;9293;49.524;10.964;2023-04-08T13:43:50;10.30;99.90
18335;DHT22;9293;49.524;10.964;2023-04-08T13:46:18;10.20;99.90
18335;DHT22;9293;49.524;10.964;2023-04-08T13:48:46;10.20;99.90
18335;DHT22;9293;49.524;10.964;2023-04-08T13:51:14;10.20;99.90
18335;DHT22;9293;49.524;10.964;2023-04-08T13:53:42;10.40;99.90
18335;DHT22;9293;49.524;10.964;2023-04-08T13:56:10;10.50;99.90
18335;DHT22;9293;49.524;10.964;2023-04-08T13:58:38;10.60;99.90
18335;DHT22;9293;49.524;10.964;2023-04-08T14:01:06;10.80;99.90
18335;DHT22;9293;49.524;10.964;2023-04-08T14:03:34;10.80;99.90
18335;DHT22;9293;49.524;10.964;2023-04-08T14:06:03;10.80;99.90
18335;DHT22;9293;49.524;10.964;2023-04-08T14:08:31;10.80;99.90
18335;DHT22;9293;49.524;10.964;2023-04-08T14:10:59;10.90;99.90
18335;DHT22;9293;49.524;10.964;2023-04-08T14:13:27;11.20;99.90
18335;DHT22;9293;49.524;10.964;2023-04-08T14:15:55;11.30;99.90
18335;DHT22;9293;49.524;10.964;2023-04-08T14:18:25;11.50;99.90
18335;DHT22;9293;49.524;10.964;2023-04-08T14:20:53;11.70;99.90
18335;DHT22;9293;49.524;10.964;2023-04-08T14:23:21;11.60;99.90
18335;DHT22;9293;49.524;10.964;2023-04-08T14:25:49;11.60;99.90
18335;DHT22;9293;49.524;10.964;2023-04-08T14:28:17;11.50;99.90
18335;DHT22;9293;49.524;10.964;2023-04-08T14:30:45;11.40;99.90
18335;DHT22;9293;49.524;10.964;2023-04-08T14:33:14;11.30;99.90
18335;DHT22;9293;49.524;10.964;2023-04-08T14:35:42;11.20;99.90
18335;DHT22;9293;49.524;10.964;2023-04-08T14:38:10;11.40;99.90
18335;DHT22;9293;49.524;10.964;2023-04-08T14:40:39;11.50;99.90
18335;DHT22;9293;49.524;10.964;2023-04-08T14:43:07;11.60;99.90
18335;DHT22;9293;49.524;10.964;2023-04-08T14:45:35;11.60;99.90
18335;DHT22;9293;49.524;10.964;2023-04-08T14:48:05;11.70;99.90
18335;DHT22;9293;49.524;10.964;2023-04-08T14:50:33;11.90;99.90
18335;DHT22;9293;49.524;10.964;2023-04-08T14:53:01;12.00;99.90
18335;DHT22;9293;49.524;10.964;2023-04-08T14:55:29;12.00;99.90
18335;DHT22;9293;49.524;10.964;2023-04-08T14:57:59;11.90;99.90
18335;DHT22;9293;49.524;10.964;2023-04-08T15:00:27;11.50;99.90
18335;DHT22;9293;49.524;10.964;2023-04-08T15:02:55;11.40;99.90
18335;DHT22;9293;49.524;10.964;2023-04-08T15:05:23;11.30;99.90
18335;DHT22;9293;49.524;10.964;2023-04-08T15:07:52;11.20;99.90
18335;DHT22;9293;49.524;10.964;2023-04-08T15:10:20;11.20;99.90
18335;DHT22;9293;49.524;10.964;2023-04-08T15:12:49;11.10;99.90
18335;DHT22;9293;49.524;10.964;2023-04-08T15:15:18;11.00;99.90
18335;DHT22;9293;49.524;10.964;2023-04-08T15:17:46;11.10;99.90
18335;DHT22;9293;49.524;10.964;2023-04-08T15:20:18;11.10;99.90
18335;DHT22;9293;49.524;10.964;2023-04-08T15:22:49;11.00;99.90
18335;DHT22;9293;49.524;10.964;2023-04-08T15:25:17;11.10;99.90
18335;DHT22;9293;49.524;10.964;2023-04-08T15:27:46;10.90;99.90
18335;DHT22;9293;49.524;10.964;2023-04-08T15:30:15;10.80;99.90
18335;DHT22;9293;49.524;10.964;2023-04-08T15:32:44;10.60;99.90
18335;DHT22;9293;49.524;10.964;2023-04-08T15:35:12;10.60;99.90
18335;DHT22;9293;49.524;10.964;2023-04-08T15:37:40;10.70;99.90
18335;DHT22;9293;49.524;10.964;2023-04-08T15:40:08;10.80;99.90
18335;DHT22;9293;49.524;10.964;2023-04-08T15:42:39;10.70;99.90
18335;DHT22;9293;49.524;10.964;2023-04-08T15:45:07;10.60;99.90
18335;DHT22;9293;49.524;10.964;2023-04-08T15:47:36;10.40;99.90
18335;DHT22;9293;49.524;10.964;2023-04-08T15:50:04;10.40;99.90
18335;DHT22;9293;49.524;10.964;2023-04-08T15:52:33;10.40;99.90
18335;DHT22;9293;49.524;10.964;2023-04-08T15:55:02;10.40;99.90
18335;DHT22;9293;49.524;10.964;2023-04-08T15:57:30;10.40;99.90
18335;DHT22;9293;49.524;10.964;2023-04-08T15:59:59;10.40;99.90
18335;DHT22;9293;49.524;10.964;2023-04-08T16:02:29;10.40;99.90
18335;DHT22;9293;49.524;10.964;2023-04-08T16:04:58;10.30;99.90
18335;DHT22;9293;49.524;10.964;2023-04-08T16:07:26;10.20;99.90
18335;DHT22;9293;49.524;10.964;2023-04-08T16:09:54;10.30;99.90
18335;DHT22;9293;49.524;10.964;2023-04-08T16:12:22;10.40;99.90
18335;DHT22;9293;49.524;10.964;2023-04-08T16:14:52;10.40;99.90
18335;DHT22;9293;49.524;10.964;2023-04-08T16:17:20;10.40;99.90
18335;DHT22;9293;49.524;10.964;2023-04-08T16:19:49;10.40;99.90
18335;DHT22;9293;49.524;10.964;2023-04-08T16:22:18;10.40;99.90
18335;DHT22;9293;49.524;10.964;2023-04-08T16:24:46;10.30;99.90
18335;DHT22;9293;49.524;10.964;2023-04-08T16:27:14;10.20;99.90
18335;DHT22;9293;49.524;10.964;2023-04-08T16:29:42;10.20;99.90